createdAt,value
2018-02-26T00:00:04.547Z,74.19
2018-02-26T00:00:30.781Z,74.09
2018-02-26T00:00:56.869Z,74.09
2018-02-26T00:01:22.986Z,73.9
2018-02-26T00:01:49.103Z,74.47
2018-02-26T00:02:15.250Z,75.13
2018-02-26T00:02:41.362Z,74.76
2018-02-26T00:03:07.518Z,75.09
2018-02-26T00:03:33.709Z,75.09
2018-02-26T00:03:59.826Z,75.47
2018-02-26T00:04:25.953Z,75.51
2018-02-26T00:04:52.094Z,75.04
2018-02-26T00:05:18.217Z,75.23
2018-02-26T00:05:44.410Z,75.42
2018-02-26T00:06:10.559Z,75.51
2018-02-26T00:06:36.673Z,75.42
2018-02-26T00:07:02.837Z,75.23
2018-02-26T00:07:28.959Z,75.32
2018-02-26T00:07:55.055Z,75.04
2018-02-26T00:08:21.205Z,75.32
2018-02-26T00:08:47.342Z,75.13
2018-02-26T00:09:13.468Z,75.51
2018-02-26T00:09:39.628Z,75.23
2018-02-26T00:10:05.778Z,75.23
2018-02-26T00:10:31.899Z,75.32
2018-02-26T00:10:58.035Z,74.95
2018-02-26T00:11:24.198Z,75.04
2018-02-26T00:11:50.283Z,75.23
2018-02-26T00:12:16.406Z,75.28
2018-02-26T00:12:42.629Z,75.04
2018-02-26T00:13:08.805Z,75
2018-02-26T00:13:34.942Z,75.32
2018-02-26T00:14:01.064Z,75.13
2018-02-26T00:14:27.203Z,75.28
2018-02-26T00:14:53.330Z,75.51
2018-02-26T00:15:19.458Z,75.38
2018-02-26T00:15:45.601Z,75.42
2018-02-26T00:16:11.736Z,75.13
2018-02-26T00:16:37.903Z,75.13
2018-02-26T00:17:04.059Z,75.32
2018-02-26T00:17:30.176Z,75.51
2018-02-26T00:17:56.264Z,75.13
2018-02-26T00:18:22.398Z,75.13
2018-02-26T00:18:48.508Z,75.32
2018-02-26T00:19:14.611Z,75.32
2018-02-26T00:19:40.712Z,75.51
2018-02-26T00:20:06.834Z,75.13
2018-02-26T00:20:32.973Z,75.32
2018-02-26T00:20:59.088Z,75.23
2018-02-26T00:21:25.234Z,75.51
2018-02-26T00:21:51.340Z,75.28
2018-02-26T00:22:17.445Z,75.19
2018-02-26T00:22:43.583Z,75.51
2018-02-26T00:23:09.751Z,75.6
2018-02-26T00:23:35.874Z,75.6
2018-02-26T00:24:01.995Z,75.47
2018-02-26T00:24:28.131Z,76.04
2018-02-26T00:24:54.271Z,76.04
2018-02-26T00:25:20.394Z,75.85
2018-02-26T00:25:46.524Z,75.66
2018-02-26T00:26:12.672Z,76.42
2018-02-26T00:26:38.825Z,76.79
2018-02-26T00:27:04.924Z,76.61
2018-02-26T00:27:31.037Z,76.42
2018-02-26T00:27:57.208Z,76.98
2018-02-26T00:28:23.381Z,77.08
2018-02-26T00:28:49.496Z,76.61
2018-02-26T00:29:15.660Z,76.61
2018-02-26T00:29:41.782Z,76.7
2018-02-26T00:30:07.976Z,76.98
2018-02-26T00:30:34.072Z,76.79
2018-02-26T00:31:00.196Z,76.89
2018-02-26T00:31:26.354Z,76.89
2018-02-26T00:31:52.470Z,76.79
2018-02-26T00:32:18.620Z,76.7
2018-02-26T00:32:44.759Z,76.89
2018-02-26T00:33:10.883Z,76.32
2018-02-26T00:33:37.019Z,76.7
2018-02-26T00:34:03.137Z,76.89
2018-02-26T00:34:29.242Z,76.7
2018-02-26T00:34:55.384Z,76.89
2018-02-26T00:35:21.542Z,76.7
2018-02-26T00:35:47.675Z,76.89
2018-02-26T00:36:13.805Z,76.61
2018-02-26T00:36:40.066Z,76.51
2018-02-26T00:37:06.148Z,76.98
2018-02-26T00:37:32.380Z,76.79
2018-02-26T00:37:58.521Z,77.08
2018-02-26T00:38:24.688Z,76.89
2018-02-26T00:38:50.851Z,76.98
2018-02-26T00:39:17.072Z,77.55
2018-02-26T00:39:43.199Z,77.36
2018-02-26T00:40:09.310Z,77.36
2018-02-26T00:40:35.416Z,77.26
2018-02-26T00:41:01.600Z,77.26
2018-02-26T00:41:27.689Z,76.98
2018-02-26T00:41:53.857Z,77.26
2018-02-26T00:42:20.025Z,77.45
2018-02-26T00:42:46.157Z,77.17
2018-02-26T00:43:12.285Z,77.26
2018-02-26T00:43:38.462Z,77.17
2018-02-26T00:44:04.571Z,77.08
2018-02-26T00:44:30.745Z,76.79
2018-02-26T00:44:56.885Z,76.61
2018-02-26T00:45:23.050Z,76.79
2018-02-26T00:45:49.178Z,76.98
2018-02-26T00:46:15.378Z,77.55
2018-02-26T00:46:41.541Z,76.79
2018-02-26T00:47:07.724Z,76.89
2018-02-26T00:47:33.869Z,76.98
2018-02-26T00:47:59.996Z,76.98
2018-02-26T00:48:26.145Z,76.7
2018-02-26T00:48:52.270Z,76.79
2018-02-26T00:49:18.437Z,76.98
2018-02-26T00:49:44.580Z,77.08
2018-02-26T00:50:10.771Z,76.79
2018-02-26T00:50:36.876Z,77.17
2018-02-26T00:51:03.022Z,76.7
2018-02-26T00:51:29.218Z,76.89
2018-02-26T00:51:55.314Z,76.89
2018-02-26T00:52:21.426Z,76.89
2018-02-26T00:52:47.539Z,76.89
2018-02-26T00:53:13.681Z,76.98
2018-02-26T00:53:39.780Z,76.79
2018-02-26T00:54:05.885Z,76.79
2018-02-26T00:54:31.984Z,76.7
2018-02-26T00:54:58.078Z,77.08
2018-02-26T00:55:24.194Z,76.7
2018-02-26T00:55:50.298Z,77.17
2018-02-26T00:56:16.392Z,76.7
2018-02-26T00:56:42.496Z,76.7
2018-02-26T00:57:08.591Z,76.51
2018-02-26T00:57:34.696Z,76.98
2018-02-26T00:58:00.798Z,76.89
2018-02-26T00:58:26.893Z,76.89
2018-02-26T00:58:53.005Z,77.08
2018-02-26T00:59:19.104Z,77.17
2018-02-26T00:59:45.198Z,76.79
2018-02-26T01:00:11.300Z,76.7
2018-02-26T01:00:37.399Z,76.98
2018-02-26T01:01:03.502Z,76.79
2018-02-26T01:01:29.605Z,76.61
2018-02-26T01:01:55.700Z,76.89
2018-02-26T01:02:21.797Z,76.98
2018-02-26T01:02:47.899Z,76.61
2018-02-26T01:03:14.021Z,76.98
2018-02-26T01:03:40.114Z,77.08
2018-02-26T01:04:06.219Z,76.89
2018-02-26T01:04:32.336Z,76.61
2018-02-26T01:04:58.426Z,76.7
2018-02-26T01:05:24.545Z,76.7
2018-02-26T01:05:50.650Z,76.61
2018-02-26T01:06:16.750Z,76.98
2018-02-26T01:06:42.847Z,76.61
2018-02-26T01:07:08.950Z,76.51
2018-02-26T01:07:35.065Z,76.98
2018-02-26T01:08:01.162Z,76.98
2018-02-26T01:08:27.262Z,76.51
2018-02-26T01:08:53.363Z,77.02
2018-02-26T01:09:19.460Z,76.51
2018-02-26T01:09:45.561Z,76.55
2018-02-26T01:10:11.657Z,76.74
2018-02-26T01:10:37.759Z,76.26
2018-02-26T01:11:03.856Z,75.47
2018-02-26T01:11:29.957Z,75.98
2018-02-26T01:11:56.056Z,76.17
2018-02-26T01:12:22.155Z,75.98
2018-02-26T01:12:48.252Z,75.6
2018-02-26T01:13:14.350Z,75.51
2018-02-26T01:13:40.454Z,75.51
2018-02-26T01:14:06.548Z,75.51
2018-02-26T01:14:32.672Z,75.51
2018-02-26T01:14:58.762Z,75.51
2018-02-26T01:15:24.865Z,75.42
2018-02-26T01:15:50.964Z,75.51
2018-02-26T01:16:17.080Z,75.23
2018-02-26T01:16:43.176Z,75.51
2018-02-26T01:17:09.279Z,75.7
2018-02-26T01:17:35.375Z,75.28
2018-02-26T01:18:01.477Z,75.6
2018-02-26T01:18:27.586Z,75.28
2018-02-26T01:18:53.690Z,76.17
2018-02-26T01:19:19.792Z,75.7
2018-02-26T01:19:45.893Z,75.51
2018-02-26T01:20:11.987Z,75.32
2018-02-26T01:20:38.093Z,75.51
2018-02-26T01:21:04.187Z,75.13
2018-02-26T01:21:30.285Z,75.6
2018-02-26T01:21:56.385Z,75.7
2018-02-26T01:22:22.486Z,75.32
2018-02-26T01:22:48.586Z,75.23
2018-02-26T01:23:14.685Z,75.6
2018-02-26T01:23:40.788Z,75.23
2018-02-26T01:24:06.888Z,75.19
2018-02-26T01:24:32.980Z,75.6
2018-02-26T01:24:59.084Z,74.95
2018-02-26T01:25:25.186Z,75.04
2018-02-26T01:25:51.285Z,75.13
2018-02-26T01:26:17.393Z,75.04
2018-02-26T01:26:43.489Z,75.23
2018-02-26T01:27:09.603Z,75.23
2018-02-26T01:27:35.709Z,75.19
2018-02-26T01:28:01.811Z,75.47
2018-02-26T01:28:27.906Z,75.19
2018-02-26T01:28:54.003Z,75.47
2018-02-26T01:29:20.104Z,75.38
2018-02-26T01:29:46.202Z,75.19
2018-02-26T01:30:12.298Z,75.85
2018-02-26T01:30:38.419Z,75.95
2018-02-26T01:31:04.518Z,75.95
2018-02-26T01:31:30.627Z,75.95
2018-02-26T01:31:56.746Z,75.85
2018-02-26T01:32:22.843Z,75.76
2018-02-26T01:32:48.942Z,76.51
2018-02-26T01:33:15.038Z,76.23
2018-02-26T01:33:41.138Z,76.14
2018-02-26T01:34:07.241Z,76.7
2018-02-26T01:34:33.340Z,76.7
2018-02-26T01:34:59.436Z,76.7
2018-02-26T01:35:25.537Z,76.23
2018-02-26T01:35:51.631Z,76.42
2018-02-26T01:36:17.738Z,76.42
2018-02-26T01:36:43.838Z,76.14
2018-02-26T01:37:09.938Z,75.79
2018-02-26T01:37:36.038Z,75.66
2018-02-26T01:38:02.142Z,75.76
2018-02-26T01:38:28.252Z,75.66
2018-02-26T01:38:54.358Z,76.04
2018-02-26T01:39:20.450Z,76.51
2018-02-26T01:39:46.548Z,76.42
2018-02-26T01:40:12.646Z,76.51
2018-02-26T01:40:38.742Z,76.51
2018-02-26T01:41:04.848Z,76.98
2018-02-26T01:41:30.948Z,76.42
2018-02-26T01:41:57.052Z,76.98
2018-02-26T01:42:23.156Z,76.51
2018-02-26T01:42:49.283Z,76.89
2018-02-26T01:43:15.384Z,76.61
2018-02-26T01:43:41.486Z,76.61
2018-02-26T01:44:07.586Z,77.02
2018-02-26T01:44:33.682Z,76.61
2018-02-26T01:44:59.784Z,76.61
2018-02-26T01:45:25.899Z,76.7
2018-02-26T01:45:52.004Z,76.26
2018-02-26T01:46:18.103Z,76.26
2018-02-26T01:46:44.197Z,76.17
2018-02-26T01:47:10.300Z,75.85
2018-02-26T01:47:36.400Z,75.95
2018-02-26T01:48:02.504Z,75.66
2018-02-26T01:48:28.604Z,75.89
2018-02-26T01:48:54.706Z,75.7
2018-02-26T01:49:20.799Z,75.76
2018-02-26T01:49:46.902Z,75.98
2018-02-26T01:50:13.002Z,75.66
2018-02-26T01:50:39.110Z,75.79
2018-02-26T01:51:05.208Z,75.79
2018-02-26T01:51:31.303Z,76.26
2018-02-26T01:51:57.406Z,75.98
2018-02-26T01:52:29.778Z,75.6
2018-02-26T01:52:55.870Z,75.89
2018-02-26T01:53:21.975Z,76.07
2018-02-26T01:53:48.074Z,75.98
2018-02-26T01:54:14.188Z,76.26
2018-02-26T01:54:40.285Z,75.42
2018-02-26T01:55:06.378Z,75.32
2018-02-26T01:55:32.473Z,75.7
2018-02-26T01:55:58.575Z,75.23
2018-02-26T01:56:24.676Z,75.42
2018-02-26T01:56:50.773Z,75.32
2018-02-26T01:57:16.874Z,75.32
2018-02-26T01:57:42.971Z,75.32
2018-02-26T01:58:09.065Z,75.51
2018-02-26T01:58:35.169Z,75.57
2018-02-26T01:59:01.282Z,75.42
2018-02-26T01:59:27.375Z,75.32
2018-02-26T01:59:53.476Z,75.04
2018-02-26T02:00:19.574Z,75.32
2018-02-26T02:00:45.664Z,75.51
2018-02-26T02:01:11.768Z,74.95
2018-02-26T02:01:37.861Z,75.13
2018-02-26T02:02:03.963Z,75.32
2018-02-26T02:02:30.082Z,74.9
2018-02-26T02:02:56.177Z,75.23
2018-02-26T02:03:22.272Z,75.32
2018-02-26T02:03:48.394Z,75.32
2018-02-26T02:04:14.495Z,75.51
2018-02-26T02:04:40.607Z,75.09
2018-02-26T02:05:06.704Z,75.28
2018-02-26T02:05:32.801Z,75.57
2018-02-26T02:05:58.897Z,75.38
2018-02-26T02:06:25.002Z,75.28
2018-02-26T02:06:51.128Z,75.47
2018-02-26T02:07:17.220Z,75.28
2018-02-26T02:07:43.322Z,76.04
2018-02-26T02:08:09.420Z,75.95
2018-02-26T02:08:35.518Z,75.85
2018-02-26T02:09:01.612Z,75.57
2018-02-26T02:09:27.705Z,75.76
2018-02-26T02:09:53.810Z,75.85
2018-02-26T02:10:19.906Z,75.79
2018-02-26T02:10:46.011Z,75.76
2018-02-26T02:11:12.100Z,75.66
2018-02-26T02:11:38.196Z,75.76
2018-02-26T02:12:04.299Z,75.57
2018-02-26T02:12:30.402Z,76.07
2018-02-26T02:12:56.499Z,75.66
2018-02-26T02:13:22.594Z,76.14
2018-02-26T02:13:48.693Z,76.14
2018-02-26T02:14:14.793Z,76.51
2018-02-26T02:14:40.894Z,76.32
2018-02-26T02:15:06.989Z,76.32
2018-02-26T02:15:33.084Z,76.23
2018-02-26T02:15:59.184Z,76.61
2018-02-26T02:16:25.285Z,76.61
2018-02-26T02:16:51.374Z,76.51
2018-02-26T02:17:17.472Z,76.42
2018-02-26T02:17:43.573Z,76.61
2018-02-26T02:18:09.674Z,76.45
2018-02-26T02:18:35.768Z,76.45
2018-02-26T02:19:01.871Z,76.32
2018-02-26T02:19:27.969Z,76.04
2018-02-26T02:19:54.068Z,76.07
2018-02-26T02:20:20.166Z,76.07
2018-02-26T02:20:46.259Z,75.79
2018-02-26T02:21:12.360Z,75.7
2018-02-26T02:21:38.462Z,75.79
2018-02-26T02:22:04.555Z,75.98
2018-02-26T02:22:30.682Z,75.7
2018-02-26T02:22:56.856Z,75.85
2018-02-26T02:23:22.920Z,75.7
2018-02-26T02:23:49.036Z,75.79
2018-02-26T02:24:15.134Z,75.95
2018-02-26T02:24:41.232Z,75.98
2018-02-26T02:25:07.332Z,75.98
2018-02-26T02:25:33.445Z,76.07
2018-02-26T02:25:59.542Z,76.07
2018-02-26T02:26:25.647Z,76.07
2018-02-26T02:26:51.752Z,75.89
2018-02-26T02:27:17.850Z,75.98
2018-02-26T02:27:43.947Z,75.98
2018-02-26T02:28:10.043Z,75.89
2018-02-26T02:28:36.148Z,75.89
2018-02-26T02:29:02.256Z,76.17
2018-02-26T02:29:28.352Z,75.98
2018-02-26T02:29:54.460Z,75.79
2018-02-26T02:30:20.555Z,76.26
2018-02-26T02:30:46.660Z,75.23
2018-02-26T02:31:12.758Z,75.23
2018-02-26T02:31:38.864Z,75.89
2018-02-26T02:32:04.962Z,75.98
2018-02-26T02:32:31.062Z,75.7
2018-02-26T02:32:57.173Z,76.07
2018-02-26T02:33:23.273Z,75.7
2018-02-26T02:33:49.367Z,75.7
2018-02-26T02:34:15.481Z,75.6
2018-02-26T02:34:41.570Z,75.13
2018-02-26T02:35:07.676Z,75.23
2018-02-26T02:35:33.773Z,75.32
2018-02-26T02:35:59.870Z,75.23
2018-02-26T02:36:25.972Z,75.23
2018-02-26T02:36:52.073Z,75.32
2018-02-26T02:37:18.203Z,75.23
2018-02-26T02:37:44.307Z,75.7
2018-02-26T02:38:10.422Z,75.6
2018-02-26T02:38:36.521Z,75.42
2018-02-26T02:39:02.623Z,75.32
2018-02-26T02:39:28.722Z,75.6
2018-02-26T02:39:54.822Z,75.51
2018-02-26T02:40:20.914Z,75.51
2018-02-26T02:40:47.015Z,75.42
2018-02-26T02:41:13.110Z,75.32
2018-02-26T02:41:39.207Z,75.13
2018-02-26T02:42:05.307Z,74.95
2018-02-26T02:42:31.406Z,75.13
2018-02-26T02:42:57.503Z,75.42
2018-02-26T02:43:23.601Z,75.42
2018-02-26T02:43:49.711Z,75.23
2018-02-26T02:44:15.816Z,75.42
2018-02-26T02:44:41.908Z,75.04
2018-02-26T02:45:08.005Z,74.95
2018-02-26T02:45:34.107Z,75.32
2018-02-26T02:46:00.200Z,75.6
2018-02-26T02:46:26.318Z,75.32
2018-02-26T02:46:52.435Z,75.42
2018-02-26T02:47:18.533Z,75.32
2018-02-26T02:47:44.633Z,75.32
2018-02-26T02:48:10.728Z,75.23
2018-02-26T02:48:36.826Z,75.23
2018-02-26T02:49:02.943Z,75.51
2018-02-26T02:49:29.057Z,75.04
2018-02-26T02:49:55.159Z,75.32
2018-02-26T02:50:21.278Z,75.32
2018-02-26T02:50:47.376Z,75.23
2018-02-26T02:51:13.472Z,75.04
2018-02-26T02:51:39.582Z,75.42
2018-02-26T02:52:05.689Z,75.42
2018-02-26T02:52:31.786Z,74.85
2018-02-26T02:52:57.885Z,74.66
2018-02-26T02:53:23.998Z,75.04
2018-02-26T02:53:50.117Z,75.04
2018-02-26T02:54:16.212Z,74.95
2018-02-26T02:54:42.313Z,75.04
2018-02-26T02:55:08.406Z,74.66
2018-02-26T02:55:34.505Z,75.23
2018-02-26T02:56:00.609Z,74.95
2018-02-26T02:56:26.713Z,74.95
2018-02-26T02:56:52.807Z,75.32
2018-02-26T02:57:18.903Z,74.85
2018-02-26T02:57:45.003Z,74.76
2018-02-26T02:58:11.112Z,74.76
2018-02-26T02:58:37.197Z,75.23
2018-02-26T02:59:03.298Z,74.85
2018-02-26T02:59:29.417Z,74.95
2018-02-26T02:59:55.515Z,75.23
2018-02-26T03:00:21.617Z,75.23
2018-02-26T03:00:47.717Z,75.32
2018-02-26T03:01:13.819Z,75.51
2018-02-26T03:01:39.918Z,75.13
2018-02-26T03:02:06.012Z,75.04
2018-02-26T03:02:32.132Z,75.32
2018-02-26T03:02:58.230Z,75.23
2018-02-26T03:03:24.359Z,75.51
2018-02-26T03:03:50.455Z,76.07
2018-02-26T03:04:16.551Z,75.6
2018-02-26T03:04:42.659Z,76.45
2018-02-26T03:05:08.757Z,76.55
2018-02-26T03:05:34.848Z,76.55
2018-02-26T03:06:00.964Z,76.36
2018-02-26T03:06:27.084Z,76.36
2018-02-26T03:06:53.172Z,75.89
2018-02-26T03:07:19.274Z,75.79
2018-02-26T03:07:45.377Z,75.79
2018-02-26T03:08:11.473Z,75.98
2018-02-26T03:08:37.571Z,76.74
2018-02-26T03:09:03.673Z,76.55
2018-02-26T03:09:29.781Z,76.45
2018-02-26T03:09:55.884Z,76.45
2018-02-26T03:10:21.977Z,76.55
2018-02-26T03:10:48.083Z,76.64
2018-02-26T03:11:14.182Z,76.55
2018-02-26T03:11:40.293Z,76.17
2018-02-26T03:12:06.409Z,75.98
2018-02-26T03:12:32.511Z,75.89
2018-02-26T03:12:58.603Z,75.79
2018-02-26T03:13:24.698Z,75.89
2018-02-26T03:13:50.800Z,75.79
2018-02-26T03:14:16.899Z,75.7
2018-02-26T03:14:42.995Z,75.79
2018-02-26T03:15:09.089Z,76.17
2018-02-26T03:15:35.183Z,75.89
2018-02-26T03:16:01.287Z,75.7
2018-02-26T03:16:27.404Z,75.89
2018-02-26T03:16:53.503Z,76.07
2018-02-26T03:17:19.603Z,76.36
2018-02-26T03:17:45.704Z,76.55
2018-02-26T03:18:11.798Z,76.83
2018-02-26T03:18:37.894Z,76.64
2018-02-26T03:19:03.999Z,76.74
2018-02-26T03:19:30.093Z,76.64
2018-02-26T03:19:56.191Z,76.55
2018-02-26T03:20:22.289Z,76.45
2018-02-26T03:20:48.387Z,76.36
2018-02-26T03:21:14.493Z,76.36
2018-02-26T03:21:40.598Z,76.74
2018-02-26T03:22:06.694Z,76.55
2018-02-26T03:22:32.795Z,77.02
2018-02-26T03:22:58.885Z,76.93
2018-02-26T03:23:24.984Z,76.83
2018-02-26T03:23:51.085Z,76.74
2018-02-26T03:24:17.181Z,76.74
2018-02-26T03:24:43.281Z,76.93
2018-02-26T03:25:09.383Z,76.83
2018-02-26T03:25:35.474Z,77.4
2018-02-26T03:26:01.570Z,77.4
2018-02-26T03:26:27.673Z,77.4
2018-02-26T03:26:53.783Z,77.12
2018-02-26T03:27:19.904Z,77.31
2018-02-26T03:27:46.027Z,77.26
2018-02-26T03:28:12.124Z,77.12
2018-02-26T03:28:38.217Z,77.02
2018-02-26T03:29:04.320Z,77.5
2018-02-26T03:29:30.423Z,77.21
2018-02-26T03:29:56.514Z,77.21
2018-02-26T03:30:22.629Z,77.02
2018-02-26T03:30:48.732Z,77.31
2018-02-26T03:31:14.840Z,77.12
2018-02-26T03:31:40.943Z,77.21
2018-02-26T03:32:07.044Z,77.02
2018-02-26T03:32:33.137Z,77.21
2018-02-26T03:32:59.251Z,77.31
2018-02-26T03:33:25.346Z,77.31
2018-02-26T03:33:51.459Z,77.31
2018-02-26T03:34:17.562Z,77.5
2018-02-26T03:34:43.661Z,77.59
2018-02-26T03:35:09.761Z,77.69
2018-02-26T03:35:35.878Z,77.59
2018-02-26T03:36:01.971Z,77.59
2018-02-26T03:36:28.064Z,77.59
2018-02-26T03:36:54.164Z,77.69
2018-02-26T03:37:20.258Z,77.5
2018-02-26T03:37:46.352Z,77.31
2018-02-26T03:38:12.456Z,77.4
2018-02-26T03:38:38.556Z,77.59
2018-02-26T03:39:04.658Z,77.78
2018-02-26T03:39:30.758Z,77.59
2018-02-26T03:39:56.847Z,77.5
2018-02-26T03:40:22.949Z,77.78
2018-02-26T03:40:49.047Z,77.69
2018-02-26T03:41:15.139Z,77.31
2018-02-26T03:41:41.236Z,77.02
2018-02-26T03:42:07.340Z,77.12
2018-02-26T03:42:33.435Z,77.59
2018-02-26T03:42:59.540Z,77.59
2018-02-26T03:43:25.637Z,77.59
2018-02-26T03:43:51.730Z,77.69
2018-02-26T03:44:17.831Z,77.78
2018-02-26T03:44:43.923Z,77.69
2018-02-26T03:45:10.028Z,77.59
2018-02-26T03:45:36.128Z,77.87
2018-02-26T03:46:02.229Z,77.69
2018-02-26T03:46:28.322Z,77.78
2018-02-26T03:46:54.423Z,77.87
2018-02-26T03:47:20.517Z,78.5
2018-02-26T03:47:46.614Z,77.74
2018-02-26T03:48:12.739Z,78.59
2018-02-26T03:48:38.844Z,78.31
2018-02-26T03:49:04.935Z,78.87
2018-02-26T03:49:31.030Z,78.97
2018-02-26T03:49:57.148Z,78.68
2018-02-26T03:50:23.242Z,78.87
2018-02-26T03:50:49.342Z,78.78
2018-02-26T03:51:15.451Z,79.25
2018-02-26T03:51:41.549Z,79.25
2018-02-26T03:52:07.654Z,79.35
2018-02-26T03:52:33.750Z,79.44
2018-02-26T03:52:59.846Z,79.25
2018-02-26T03:53:25.946Z,79.16
2018-02-26T03:53:52.039Z,79.53
2018-02-26T03:54:18.142Z,79.63
2018-02-26T03:54:44.236Z,79.63
2018-02-26T03:55:10.338Z,79.63
2018-02-26T03:55:36.431Z,80.1
2018-02-26T03:56:02.536Z,79.72
2018-02-26T03:56:28.637Z,79.82
2018-02-26T03:56:54.731Z,79.44
2018-02-26T03:57:20.848Z,79.25
2018-02-26T03:57:46.941Z,79.35
2018-02-26T03:58:13.035Z,79.35
2018-02-26T03:58:39.146Z,78.68
2018-02-26T03:59:05.243Z,78.97
2018-02-26T03:59:31.347Z,78.68
2018-02-26T03:59:57.461Z,78.87
2018-02-26T04:00:23.556Z,79.16
2018-02-26T04:00:49.656Z,79.53
2018-02-26T04:01:15.759Z,79.25
2018-02-26T04:01:41.852Z,79.16
2018-02-26T04:02:07.951Z,79.25
2018-02-26T04:02:34.059Z,79.25
2018-02-26T04:03:00.173Z,79.06
2018-02-26T04:03:26.266Z,79.35
2018-02-26T04:03:52.365Z,78.97
2018-02-26T04:04:18.466Z,79.35
2018-02-26T04:04:44.566Z,79.25
2018-02-26T04:05:10.662Z,79.44
2018-02-26T04:05:36.759Z,79.63
2018-02-26T04:06:02.858Z,79.44
2018-02-26T04:06:28.964Z,79.91
2018-02-26T04:06:55.058Z,79.53
2018-02-26T04:07:21.159Z,79.44
2018-02-26T04:07:47.260Z,79.35
2018-02-26T04:08:13.353Z,79.35
2018-02-26T04:08:39.443Z,79.82
2018-02-26T04:09:05.546Z,80
2018-02-26T04:09:31.660Z,79.53
2018-02-26T04:09:57.761Z,79.63
2018-02-26T04:10:23.860Z,79.44
2018-02-26T04:10:49.956Z,80
2018-02-26T04:11:16.060Z,79.91
2018-02-26T04:11:42.172Z,80
2018-02-26T04:12:08.356Z,79.72
2018-02-26T04:12:34.484Z,79.63
2018-02-26T04:13:00.594Z,79.91
2018-02-26T04:13:26.692Z,79.44
2018-02-26T04:13:52.807Z,79.44
2018-02-26T04:14:18.925Z,79.44
2018-02-26T04:14:45.024Z,79.53
2018-02-26T04:15:11.119Z,79.35
2018-02-26T04:15:37.219Z,79.35
2018-02-26T04:16:03.332Z,79.35
2018-02-26T04:16:29.426Z,79.25
2018-02-26T04:16:55.523Z,79.35
2018-02-26T04:17:21.626Z,79.25
2018-02-26T04:17:47.722Z,79.35
2018-02-26T04:18:13.825Z,79.35
2018-02-26T04:18:39.918Z,79.53
2018-02-26T04:19:06.013Z,79.25
2018-02-26T04:19:32.113Z,79.63
2018-02-26T04:19:58.211Z,79.35
2018-02-26T04:20:24.319Z,79.35
2018-02-26T04:20:50.415Z,79.53
2018-02-26T04:21:16.514Z,79.91
2018-02-26T04:21:42.609Z,79.82
2018-02-26T04:22:08.707Z,80
2018-02-26T04:22:34.808Z,79.53
2018-02-26T04:23:00.899Z,80
2018-02-26T04:23:27.015Z,79.82
2018-02-26T04:23:53.118Z,79.82
2018-02-26T04:24:19.233Z,79.82
2018-02-26T04:24:45.332Z,79.82
2018-02-26T04:25:11.425Z,80
2018-02-26T04:25:37.527Z,80
2018-02-26T04:26:03.641Z,79.72
2018-02-26T04:26:29.738Z,79.53
2018-02-26T04:26:55.833Z,79.44
2018-02-26T04:27:21.939Z,79.63
2018-02-26T04:27:48.045Z,80.1
2018-02-26T04:28:14.150Z,80
2018-02-26T04:28:40.252Z,79.82
2018-02-26T04:29:06.339Z,79.72
2018-02-26T04:29:32.444Z,79.63
2018-02-26T04:29:58.542Z,79.72
2018-02-26T04:30:24.643Z,79.63
2018-02-26T04:30:50.734Z,79.91
2018-02-26T04:31:16.835Z,79.82
2018-02-26T04:31:42.932Z,79.82
2018-02-26T04:32:09.037Z,79.82
2018-02-26T04:32:35.133Z,79.63
2018-02-26T04:33:01.224Z,79.44
2018-02-26T04:33:27.325Z,79.25
2018-02-26T04:33:53.418Z,79.06
2018-02-26T04:34:19.519Z,79.06
2018-02-26T04:34:45.615Z,79.16
2018-02-26T04:35:11.744Z,79.25
2018-02-26T04:35:37.859Z,79.25
2018-02-26T04:36:03.967Z,79.25
2018-02-26T04:36:30.082Z,79.35
2018-02-26T04:36:56.197Z,79.44
2018-02-26T04:37:22.322Z,79.53
2018-02-26T04:37:48.444Z,79.63
2018-02-26T04:38:14.552Z,79.35
2018-02-26T04:38:40.665Z,79.25
2018-02-26T04:39:06.798Z,79.53
2018-02-26T04:39:32.926Z,78.97
2018-02-26T04:39:59.055Z,79.06
2018-02-26T04:40:25.168Z,78.78
2018-02-26T04:40:51.277Z,78.87
2018-02-26T04:41:17.394Z,78.5
2018-02-26T04:41:43.510Z,78.31
2018-02-26T04:42:09.613Z,78.31
2018-02-26T04:42:35.715Z,78.4
2018-02-26T04:43:01.826Z,78.4
2018-02-26T04:43:27.946Z,78.78
2018-02-26T04:43:54.056Z,78.68
2018-02-26T04:44:20.151Z,78.97
2018-02-26T04:44:46.259Z,78.87
2018-02-26T04:45:12.353Z,78.97
2018-02-26T04:45:38.446Z,78.97
2018-02-26T04:46:04.543Z,79.06
2018-02-26T04:46:30.645Z,78.78
2018-02-26T04:46:56.741Z,79.53
2018-02-26T04:47:22.842Z,78.97
2018-02-26T04:47:48.945Z,78.68
2018-02-26T04:48:15.046Z,78.78
2018-02-26T04:48:41.137Z,79.53
2018-02-26T04:49:07.240Z,79.16
2018-02-26T04:49:33.333Z,79.44
2018-02-26T04:49:59.451Z,78.87
2018-02-26T04:50:25.549Z,78.87
2018-02-26T04:50:51.643Z,79.35
2018-02-26T04:51:17.740Z,79.53
2018-02-26T04:51:43.839Z,79.25
2018-02-26T04:52:09.953Z,78.97
2018-02-26T04:52:36.055Z,79.35
2018-02-26T04:53:02.149Z,79.35
2018-02-26T04:53:28.242Z,78.87
2018-02-26T04:53:54.335Z,78.97
2018-02-26T04:54:20.438Z,79.25
2018-02-26T04:54:46.536Z,78.68
2018-02-26T04:55:12.639Z,78.87
2018-02-26T04:55:38.734Z,78.68
2018-02-26T04:56:04.828Z,78.78
2018-02-26T04:56:30.949Z,78.4
2018-02-26T04:56:57.052Z,78.4
2018-02-26T04:57:23.146Z,78.5
2018-02-26T04:57:49.264Z,78.68
2018-02-26T04:58:15.361Z,78.12
2018-02-26T04:58:41.458Z,78.12
2018-02-26T04:59:07.571Z,78.78
2018-02-26T04:59:33.667Z,78.78
2018-02-26T04:59:59.768Z,77.64
2018-02-26T05:00:25.884Z,78.78
2018-02-26T05:00:51.987Z,78.02
2018-02-26T05:01:18.099Z,78.12
2018-02-26T05:01:44.196Z,78.78
2018-02-26T05:02:10.287Z,78.02
2018-02-26T05:02:36.395Z,78.12
2018-02-26T05:03:02.489Z,78.21
2018-02-26T05:03:28.583Z,78.02
2018-02-26T05:03:54.698Z,78.87
2018-02-26T05:04:20.802Z,78.5
2018-02-26T05:04:46.897Z,78.5
2018-02-26T05:05:13.000Z,78.59
2018-02-26T05:05:39.109Z,78.31
2018-02-26T05:06:05.205Z,78.59
2018-02-26T05:06:31.309Z,78.68
2018-02-26T05:06:57.407Z,78.02
2018-02-26T05:07:23.503Z,77.93
2018-02-26T05:07:49.605Z,77.36
2018-02-26T05:08:15.706Z,77.55
2018-02-26T05:08:41.813Z,76.89
2018-02-26T05:09:07.914Z,77.26
2018-02-26T05:09:34.023Z,77.36
2018-02-26T05:10:00.145Z,76.61
2018-02-26T05:10:26.251Z,76.89
2018-02-26T05:10:52.371Z,76.61
2018-02-26T05:11:18.452Z,76.7
2018-02-26T05:11:44.548Z,76.89
2018-02-26T05:12:10.648Z,76.89
2018-02-26T05:12:36.762Z,77.17
2018-02-26T05:13:02.862Z,77.08
2018-02-26T05:13:28.955Z,77.45
2018-02-26T05:13:55.060Z,77.64
2018-02-26T05:14:21.153Z,77.64
2018-02-26T05:14:47.248Z,77.93
2018-02-26T05:15:13.354Z,77.64
2018-02-26T05:15:39.449Z,78.12
2018-02-26T05:16:05.549Z,77.55
2018-02-26T05:16:31.643Z,77.55
2018-02-26T05:16:57.740Z,77.45
2018-02-26T05:17:23.841Z,77.64
2018-02-26T05:17:49.935Z,77.17
2018-02-26T05:18:16.036Z,76.98
2018-02-26T05:18:42.134Z,77.17
2018-02-26T05:19:08.228Z,77.08
2018-02-26T05:19:34.322Z,77.17
2018-02-26T05:20:00.421Z,77.36
2018-02-26T05:20:26.525Z,77.36
2018-02-26T05:20:52.622Z,76.89
2018-02-26T05:21:18.744Z,77.55
2018-02-26T05:21:44.846Z,77.36
2018-02-26T05:22:10.940Z,77.17
2018-02-26T05:22:37.035Z,77.36
2018-02-26T05:23:03.131Z,77.17
2018-02-26T05:23:29.229Z,77.26
2018-02-26T05:23:55.322Z,77.08
2018-02-26T05:24:21.437Z,77.26
2018-02-26T05:24:47.533Z,77.36
2018-02-26T05:25:13.631Z,76.89
2018-02-26T05:25:39.727Z,76.98
2018-02-26T05:26:05.824Z,76.7
2018-02-26T05:26:31.926Z,76.42
2018-02-26T05:26:58.041Z,76.51
2018-02-26T05:27:24.132Z,76.61
2018-02-26T05:27:50.233Z,76.61
2018-02-26T05:28:16.351Z,76.23
2018-02-26T05:28:42.451Z,76.32
2018-02-26T05:29:08.546Z,76.51
2018-02-26T05:29:34.665Z,76.51
2018-02-26T05:30:00.770Z,76.32
2018-02-26T05:30:26.854Z,76.32
2018-02-26T05:30:52.958Z,75.76
2018-02-26T05:31:19.052Z,75.66
2018-02-26T05:31:45.151Z,75.57
2018-02-26T05:32:11.252Z,75.85
2018-02-26T05:32:37.348Z,76.04
2018-02-26T05:33:03.450Z,75.95
2018-02-26T05:33:29.547Z,75.66
2018-02-26T05:33:55.640Z,75.76
2018-02-26T05:34:21.742Z,75.95
2018-02-26T05:34:47.836Z,75.95
2018-02-26T05:35:13.954Z,75.76
2018-02-26T05:35:40.054Z,75.57
2018-02-26T05:36:06.150Z,75.47
2018-02-26T05:36:32.252Z,75.47
2018-02-26T05:36:58.346Z,75.47
2018-02-26T05:37:24.449Z,75.57